Aeroporto :
LOGIN :

Iscrizione | Disclaimer

   EN    FR    IT 

 










Sommario :    VFR   VFR Marginale   IFR   IFR Intensivo   IFR Molto Intensivo
Visibilità : 
Base nubi : 
>= 8 km
>= 3000ft
5 / 8 km
1000 / 3000 ft
1500m / 5 km
500 / 1000 ft
800 / 1500m
200 / 500 ft
< 800m
< 200 ft
Simboli :   Temporali  Nebbia  Neve Forte  Precipitazioni Forti  Vento > 20 kt
SIGMETs :   Varie  Temporali  Ghiacco  Turbolenza  Onda orograficha  Ceneri Vulcaniche






- Altitudine del aeroporto : 142 ft
- Codice IATA : FLR


LIRQ - Firenze Amerigo Vespucci

ULTIMO METAR :
  • 201350Z 22008KT 9999 FEW040 17/10 Q1011

METARs OBSOLETI :
  • 201320Z 23004KT 200V280 9999 FEW040TCU 16/10 Q1012
  • 201250Z 22005KT 190V270 9999 FEW040 16/10 Q1012
  • 201220Z VRB02KT 9999 FEW040TCU 17/12 Q1012
  • 201150Z VRB02KT 9999 FEW040TCU 16/11 Q1012
  • 201120Z VRB02KT 9999 FEW040 15/11 Q1012

TAF TAF LIRQ
Valido dal 20 a 12 ore il 21 a 12 ore UTC


201100Z 2012/2112 VRB06KT 9999 SCT050
TEMPO 2100/2109 4000 SHRA



MetMap, La meteo Aeronautica in un colpo d'occhio ! - Copyright ORBIFLY Dicembre 2007 - Disclaimer

ORBIFLY MET'MAP TEAM :

Programmazione e sviluppo : Alexandra Zaïnal
Concezione e sviluppo : Baudouin d'Aumeries
Co-Programmazione e sviluppo : Marc-Olivier Méhu
Supporto tecnico e logistico : Manuel Goepfert
Aiuto per la traduzione : Arnaldo La Scala

Contatto : metmap@orbifly.com




FONTI E CREDITI :

   NOAA